Time;durP1;ratioP1;P1;durP2;ratioP2;P2;SDS_P1;SDS_P2;PMS_P1;PMS_P2;Temp;Humidity;BMP_temperature;BMP_pressure;BME280_temperature;BME280_humidity;BME280_pressure;Samples;Min_cycle;Max_cycle;Signal;HPM_P1;HPM_P2
2022/08/07 00:01:37;;;;;;;2.77;2.57;;;13.40;99.90;;;;;;5051729;28;20646;-65
2022/08/07 00:04:04;;;;;;;2.30;2.10;;;13.40;99.90;;;;;;5050799;28;20573;-65
2022/08/07 00:06:32;;;;;;;3.00;2.70;;;13.40;99.90;;;;;;5049774;28;20235;-65
2022/08/07 00:08:59;;;;;;;2.50;2.30;;;13.50;99.90;;;;;;5051918;28;20199;-65
2022/08/07 00:11:26;;;;;;;4.90;2.40;;;13.30;99.90;;;;;;5051934;28;20554;-65
2022/08/07 00:13:53;;;;;;;3.80;2.90;;;13.10;99.90;;;;;;5051577;28;20425;-65
2022/08/07 00:16:20;;;;;;;4.73;2.70;;;12.70;99.90;;;;;;5052125;28;20520;-65
2022/08/07 00:18:47;;;;;;;4.30;3.00;;;12.90;99.90;;;;;;5051200;28;20218;-65
2022/08/07 00:21:14;;;;;;;2.90;2.50;;;12.90;99.90;;;;;;5040851;28;20214;-65
2022/08/07 00:23:42;;;;;;;4.67;3.03;;;13.00;99.90;;;;;;5045764;28;20577;-65
2022/08/07 00:26:10;;;;;;;3.77;2.43;;;13.10;99.90;;;;;;5051471;28;20199;-65
2022/08/07 00:28:37;;;;;;;3.00;2.67;;;13.10;99.90;;;;;;5055336;28;20203;-65
2022/08/07 00:31:08;;;;;;;3.43;2.50;;;12.80;99.90;;;;;;5055655;28;20284;-65
2022/08/07 00:33:35;;;;;;;3.63;2.70;;;12.70;99.90;;;;;;5055385;28;20207;-65
2022/08/07 00:36:03;;;;;;;6.93;3.10;;;12.70;99.90;;;;;;5055041;28;20203;-65
2022/08/07 00:38:29;;;;;;;4.17;2.87;;;12.60;99.90;;;;;;5054578;28;20234;-65
2022/08/07 00:40:58;;;;;;;3.50;2.70;;;12.80;99.90;;;;;;5054825;28;20559;-65
2022/08/07 00:43:24;;;;;;;5.10;2.87;;;13.00;99.90;;;;;;5055763;28;20214;-65
2022/08/07 00:45:51;;;;;;;5.47;2.80;;;12.70;99.90;;;;;;5055481;28;20203;-65
2022/08/07 00:48:18;;;;;;;3.43;2.60;;;12.70;99.90;;;;;;5055243;28;20195;-65
2022/08/07 00:50:45;;;;;;;2.93;2.60;;;12.60;99.90;;;;;;5048493;28;20225;-65
2022/08/07 00:53:12;;;;;;;3.40;2.67;;;12.60;99.90;;;;;;5045067;28;20204;-65
2022/08/07 00:55:38;;;;;;;3.60;3.20;;;12.50;99.90;;;;;;5042051;28;20661;-65
2022/08/07 00:58:07;;;;;;;4.30;2.80;;;12.60;99.90;;;;;;5055236;28;20229;-65
2022/08/07 01:00:34;;;;;;;3.63;2.83;;;12.40;99.90;;;;;;5054320;28;20207;-65
2022/08/07 01:03:00;;;;;;;3.00;2.70;;;12.40;99.90;;;;;;5055043;28;20209;-65
2022/08/07 01:05:29;;;;;;;3.40;2.50;;;12.60;99.90;;;;;;5049738;28;20202;-65
2022/08/07 01:07:56;;;;;;;4.17;2.90;;;12.70;99.90;;;;;;5054741;28;20183;-65
2022/08/07 01:10:23;;;;;;;2.83;2.57;;;12.60;99.90;;;;;;5051188;28;20203;-65
2022/08/07 01:12:50;;;;;;;4.10;3.03;;;12.40;99.90;;;;;;5051257;28;20206;-65
2022/08/07 01:15:18;;;;;;;2.83;2.50;;;12.30;99.90;;;;;;5054962;28;20653;-65
2022/08/07 01:17:45;;;;;;;3.80;2.70;;;12.40;99.90;;;;;;5055046;28;20207;-65
2022/08/07 01:20:15;;;;;;;2.53;2.33;;;12.60;99.90;;;;;;5043890;28;20215;-65
2022/08/07 01:22:44;;;;;;;2.60;2.40;;;12.50;99.90;;;;;;5045140;28;20646;-68
2022/08/07 01:25:14;;;;;;;2.97;2.67;;;12.40;99.90;;;;;;5044626;28;20664;-69
2022/08/07 01:27:41;;;;;;;4.03;2.77;;;12.10;99.90;;;;;;5044352;28;20210;-70
2022/08/07 01:30:09;;;;;;;4.73;2.80;;;12.30;99.90;;;;;;5054816;28;20277;-69
2022/08/07 01:32:36;;;;;;;2.77;2.47;;;12.30;99.90;;;;;;5054077;28;20191;-70
2022/08/07 01:35:04;;;;;;;3.37;2.60;;;12.30;99.90;;;;;;5048820;28;20202;-70
2022/08/07 01:37:31;;;;;;;3.30;2.47;;;12.10;99.90;;;;;;5054356;28;20199;-68
2022/08/07 01:40:01;;;;;;;4.17;2.53;;;12.30;99.90;;;;;;5053371;28;20222;-69
2022/08/07 01:42:28;;;;;;;2.80;2.53;;;12.10;99.90;;;;;;5039051;28;20203;-68
2022/08/07 01:44:55;;;;;;;3.50;2.80;;;11.90;99.90;;;;;;5054044;28;20205;-68
2022/08/07 01:47:22;;;;;;;3.47;3.13;;;11.70;99.90;;;;;;5054605;28;20270;-69
2022/08/07 01:49:49;;;;;;;3.40;3.10;;;11.40;99.90;;;;;;5054631;28;20199;-68
2022/08/07 01:52:18;;;;;;;3.40;3.10;;;11.50;99.90;;;;;;5046198;28;20211;-69
2022/08/07 01:54:46;;;;;;;2.80;2.60;;;11.50;99.90;;;;;;5050245;28;20672;-70
2022/08/07 01:57:19;;;;;;;3.37;2.90;;;11.50;99.90;;;;;;5046897;28;20211;-69
2022/08/07 01:59:51;;;;;;;3.33;3.00;;;11.50;99.90;;;;;;5053842;28;20234;-69
2022/08/07 02:02:24;;;;;;;4.53;3.13;;;11.60;99.90;;;;;;5053765;28;20210;-70
2022/08/07 02:04:56;;;;;;;2.70;2.50;;;11.60;99.90;;;;;;5045844;28;20238;-69
2022/08/07 02:07:26;;;;;;;3.07;2.87;;;11.60;99.90;;;;;;5051086;28;20642;-69
2022/08/07 02:09:55;;;;;;;4.10;3.20;;;11.60;99.90;;;;;;5053242;28;20241;-69
2022/08/07 02:12:28;;;;;;;4.57;2.70;;;11.60;99.90;;;;;;5052737;28;20290;-70
2022/08/07 02:14:57;;;;;;;4.27;2.90;;;11.70;99.90;;;;;;5053450;28;20205;-70
2022/08/07 02:17:24;;;;;;;4.73;3.30;;;11.60;99.90;;;;;;5053893;28;20203;-70
2022/08/07 02:19:54;;;;;;;7.47;3.07;;;11.60;99.90;;;;;;5049153;28;20215;-69
2022/08/07 02:22:23;;;;;;;3.40;3.10;;;11.50;99.90;;;;;;5053671;28;20214;-70
2022/08/07 02:24:52;;;;;;;3.57;3.07;;;11.30;99.90;;;;;;5053528;28;20226;-68
2022/08/07 02:27:22;;;;;;;3.97;3.20;;;11.60;99.90;;;;;;5053468;28;20198;-70
2022/08/07 02:29:51;;;;;;;6.33;3.30;;;11.60;99.90;;;;;;5053372;28;20203;-70
2022/08/07 02:32:19;;;;;;;3.53;3.23;;;11.60;99.90;;;;;;5042612;28;20208;-69
2022/08/07 02:34:48;;;;;;;5.63;3.50;;;11.60;99.90;;;;;;5034944;28;20251;-70
2022/08/07 02:37:16;;;;;;;6.73;4.07;;;11.50;99.90;;;;;;5047314;28;20207;-69
2022/08/07 02:39:45;;;;;;;6.57;3.47;;;11.40;99.90;;;;;;5053214;28;20222;-70
2022/08/07 02:42:13;;;;;;;4.03;3.43;;;11.30;99.90;;;;;;5053330;28;20543;-69
2022/08/07 02:44:41;;;;;;;6.20;3.37;;;11.30;99.90;;;;;;5053075;28;20203;-70
2022/08/07 02:47:12;;;;;;;5.03;3.33;;;11.20;99.90;;;;;;5052601;28;20195;-70
2022/08/07 02:49:39;;;;;;;3.33;3.03;;;11.30;99.90;;;;;;5033044;28;20231;-68
2022/08/07 02:52:11;;;;;;;7.37;2.93;;;11.40;99.90;;;;;;5038659;28;20280;-70
2022/08/07 02:54:41;;;;;;;6.07;3.57;;;11.50;99.90;;;;;;5053178;28;20210;-70
2022/08/07 02:57:11;;;;;;;4.33;3.30;;;11.40;99.90;;;;;;5052621;28;20199;-70
2022/08/07 02:59:42;;;;;;;3.67;3.07;;;11.30;99.90;;;;;;5052764;28;20219;-69
2022/08/07 03:02:11;;;;;;;3.93;3.37;;;11.10;99.90;;;;;;5052865;28;20203;-69
2022/08/07 03:04:40;;;;;;;5.27;3.33;;;11.20;99.90;;;;;;5046645;28;20230;-69
2022/08/07 03:07:07;;;;;;;4.73;3.70;;;11.00;99.90;;;;;;5044945;28;20571;-70
2022/08/07 03:09:35;;;;;;;4.67;3.33;;;11.10;99.90;;;;;;5052407;28;20203;-69
2022/08/07 03:12:03;;;;;;;4.37;3.40;;;11.30;99.90;;;;;;5052568;28;20203;-69
2022/08/07 03:14:30;;;;;;;4.77;3.90;;;11.30;99.90;;;;;;5052998;28;20579;-70
2022/08/07 03:16:58;;;;;;;7.50;3.90;;;11.10;99.90;;;;;;5052542;28;20241;-70
2022/08/07 03:19:26;;;;;;;3.50;3.20;;;11.20;99.90;;;;;;5051935;28;20219;-69
2022/08/07 03:21:54;;;;;;;5.10;3.33;;;11.30;99.90;;;;;;5049332;28;20567;-69
2022/08/07 03:24:21;;;;;;;4.37;3.50;;;11.30;99.90;;;;;;5044019;28;20195;-69
2022/08/07 03:26:50;;;;;;;5.17;3.40;;;11.10;99.90;;;;;;5051604;28;20194;-69
2022/08/07 03:29:19;;;;;;;5.40;3.60;;;11.20;99.90;;;;;;5039291;28;20198;-70
2022/08/07 03:31:48;;;;;;;5.43;3.80;;;11.30;99.90;;;;;;5051977;28;20202;-70
2022/08/07 03:34:19;;;;;;;4.50;3.90;;;11.30;99.90;;;;;;5049271;28;20204;-69
2022/08/07 03:36:49;;;;;;;3.87;3.30;;;11.20;99.90;;;;;;5032355;28;20288;-70
2022/08/07 03:39:18;;;;;;;7.33;3.70;;;11.20;99.90;;;;;;5036640;28;20228;-70
2022/08/07 03:41:45;;;;;;;4.73;3.10;;;11.10;99.90;;;;;;5052183;28;20206;-69
2022/08/07 03:44:12;;;;;;;4.27;3.77;;;11.00;99.90;;;;;;5052346;28;20566;-70
2022/08/07 03:46:40;;;;;;;4.23;3.00;;;10.90;99.90;;;;;;5052161;28;20241;-70
2022/08/07 03:49:09;;;;;;;3.10;2.80;;;10.70;99.90;;;;;;5049753;28;20282;-70
2022/08/07 03:51:36;;;;;;;4.30;3.60;;;10.70;99.90;;;;;;5047672;28;20202;-70
2022/08/07 03:54:04;;;;;;;4.47;3.23;;;10.40;99.90;;;;;;5048227;28;20579;-68
2022/08/07 03:56:35;;;;;;;5.10;4.17;;;10.50;99.90;;;;;;5045009;28;20198;-70
2022/08/07 03:59:03;;;;;;;5.13;3.40;;;10.60;99.90;;;;;;5051725;28;20216;-69
2022/08/07 04:01:31;;;;;;;5.77;3.80;;;10.70;99.90;;;;;;5051443;28;20206;-70
2022/08/07 04:03:58;;;;;;;4.10;3.60;;;10.70;99.90;;;;;;5050950;28;20693;-69
2022/08/07 04:06:25;;;;;;;6.53;3.70;;;10.80;99.90;;;;;;5041939;28;20567;-70
2022/08/07 04:08:53;;;;;;;6.37;3.90;;;11.40;99.90;;;;;;5051829;28;20195;-69
2022/08/07 04:11:21;;;;;;;5.40;4.20;;;11.90;99.90;;;;;;5046231;28;20194;-69
2022/08/07 04:13:50;;;;;;;4.97;3.57;;;12.00;99.90;;;;;;5051464;28;20199;-69
2022/08/07 04:16:17;;;;;;;4.80;3.30;;;12.40;99.90;;;;;;5052446;28;20521;-69
2022/08/07 04:18:44;;;;;;;4.20;3.43;;;12.70;99.90;;;;;;5051827;28;20206;-69
2022/08/07 04:21:11;;;;;;;4.53;3.90;;;12.70;99.90;;;;;;5044962;28;20195;-69
2022/08/07 04:23:38;;;;;;;5.33;3.90;;;12.30;99.90;;;;;;5051463;28;20206;-69
2022/08/07 04:26:07;;;;;;;5.07;3.50;;;12.00;99.90;;;;;;5047558;28;20631;-70
2022/08/07 04:28:35;;;;;;;5.20;3.67;;;11.90;99.90;;;;;;5031621;28;20223;-69
2022/08/07 04:31:02;;;;;;;9.10;3.90;;;11.70;99.90;;;;;;5048948;28;20206;-70
2022/08/07 04:33:29;;;;;;;5.97;3.73;;;11.50;99.90;;;;;;5051212;28;20195;-70
2022/08/07 04:35:56;;;;;;;6.60;4.33;;;11.50;99.90;;;;;;5040520;28;20538;-69
2022/08/07 04:38:25;;;;;;;6.43;4.20;;;11.60;99.90;;;;;;5051519;28;20221;-69
2022/08/07 04:40:52;;;;;;;8.97;4.23;;;11.50;99.90;;;;;;5051214;28;20272;-69
2022/08/07 04:43:21;;;;;;;7.90;4.43;;;11.40;99.90;;;;;;5043472;28;20203;-66
2022/08/07 04:45:57;;;;;;;7.00;3.73;;;11.60;99.90;;;;;;5051843;28;20232;-65
2022/08/07 04:48:31;;;;;;;6.67;3.87;;;11.50;99.90;;;;;;5051602;28;20669;-65
2022/08/07 04:51:05;;;;;;;6.93;4.50;;;11.50;99.90;;;;;;5051008;28;20531;-65
2022/08/07 04:53:39;;;;;;;6.53;4.40;;;11.60;99.90;;;;;;5050777;28;20573;-65
2022/08/07 04:56:15;;;;;;;6.63;4.13;;;11.80;99.90;;;;;;5051557;28;20218;-65
2022/08/07 04:58:49;;;;;;;7.73;5.07;;;11.80;99.90;;;;;;5044484;28;20262;-65
2022/08/07 05:01:24;;;;;;;6.93;4.40;;;11.80;99.90;;;;;;5051068;28;20187;-65
2022/08/07 05:04:02;;;;;;;7.97;4.70;;;11.90;99.90;;;;;;5051262;28;20210;-65
2022/08/07 05:06:49;;;;;;;7.23;4.50;;;11.80;99.90;;;;;;5044356;28;20555;-65
2022/08/07 05:09:24;;;;;;;7.60;4.70;;;12.40;99.90;;;;;;5051366;28;20199;-65
2022/08/07 05:11:53;;;;;;;6.73;4.47;;;12.40;99.90;;;;;;5051335;28;20210;-65
2022/08/07 05:14:26;;;;;;;6.57;5.10;;;12.60;99.90;;;;;;5052618;28;20646;-65
2022/08/07 05:16:58;;;;;;;6.67;4.57;;;12.60;99.90;;;;;;5054289;28;20207;-65
2022/08/07 05:19:30;;;;;;;7.67;4.73;;;12.80;99.90;;;;;;5050200;28;20226;-65
2022/08/07 05:22:00;;;;;;;7.53;4.97;;;13.10;99.90;;;;;;5048843;28;20210;-65
2022/08/07 05:24:28;;;;;;;7.63;5.17;;;13.60;99.90;;;;;;5054688;28;20657;-65
2022/08/07 05:26:58;;;;;;;7.07;4.90;;;13.90;99.90;;;;;;5054429;28;20736;-65
2022/08/07 05:29:27;;;;;;;8.83;4.90;;;13.70;99.90;;;;;;5054343;28;20195;-65
2022/08/07 05:31:56;;;;;;;7.43;4.80;;;13.80;99.90;;;;;;5054569;28;20214;-66
2022/08/07 05:34:24;;;;;;;6.43;4.50;;;14.00;99.90;;;;;;5054586;28;20218;-65
2022/08/07 05:36:52;;;;;;;8.70;5.47;;;15.10;99.90;;;;;;5045795;28;20207;-65
2022/08/07 05:39:21;;;;;;;7.13;5.10;;;14.40;99.90;;;;;;5054289;28;20207;-66
2022/08/07 05:41:49;;;;;;;5.93;4.33;;;13.80;99.90;;;;;;5053926;28;20202;-65
2022/08/07 05:44:18;;;;;;;7.33;5.47;;;13.50;99.90;;;;;;5054087;28;20206;-65
2022/08/07 05:46:47;;;;;;;10.03;6.37;;;13.50;99.90;;;;;;5054375;28;20623;-65
2022/08/07 05:49:16;;;;;;;8.90;6.37;;;13.40;99.90;;;;;;5054347;28;20199;-66
2022/08/07 05:51:44;;;;;;;7.77;5.43;;;13.40;99.90;;;;;;5045404;28;20210;-66
2022/08/07 05:54:11;;;;;;;9.77;5.40;;;13.50;99.90;;;;;;5054289;28;20199;-66
2022/08/07 05:56:40;;;;;;;8.17;5.20;;;13.60;99.90;;;;;;5053780;28;20214;-66
2022/08/07 05:59:13;;;;;;;8.90;5.17;;;13.40;99.90;;;;;;5053752;28;20218;-65
2022/08/07 06:01:41;;;;;;;15.40;9.03;;;13.50;99.90;;;;;;5053690;28;20210;-65
2022/08/07 06:04:08;;;;;;;7.10;5.60;;;13.70;99.90;;;;;;5052163;28;20203;-66
2022/08/07 06:06:37;;;;;;;8.63;5.30;;;13.60;99.90;;;;;;5042983;28;20580;-65
2022/08/07 06:09:04;;;;;;;8.20;5.13;;;13.80;99.90;;;;;;5049751;28;20290;-66
2022/08/07 06:11:32;;;;;;;7.63;5.03;;;13.80;99.90;;;;;;5051981;28;20199;-66
2022/08/07 06:13:59;;;;;;;7.57;5.03;;;13.80;99.90;;;;;;5043859;28;20203;-66
2022/08/07 06:16:31;;;;;;;9.73;5.20;;;14.00;99.90;;;;;;5046210;28;20688;-66
2022/08/07 06:18:59;;;;;;;8.63;4.77;;;14.20;99.90;;;;;;5044729;28;20195;-65
2022/08/07 06:21:27;;;;;;;6.60;4.90;;;14.20;99.90;;;;;;5044639;28;20740;-66
2022/08/07 06:23:55;;;;;;;8.23;5.23;;;14.40;99.90;;;;;;5049331;28;20199;-66
2022/08/07 06:26:22;;;;;;;7.43;5.17;;;14.40;99.90;;;;;;5048058;28;20199;-66
2022/08/07 06:28:50;;;;;;;8.33;5.10;;;14.50;99.90;;;;;;5042480;28;20205;-66
2022/08/07 06:31:21;;;;;;;7.67;5.17;;;14.90;99.90;;;;;;5042117;28;20211;-65
2022/08/07 06:33:48;;;;;;;7.60;5.27;;;14.80;99.90;;;;;;5050632;28;20646;-66
2022/08/07 06:36:15;;;;;;;6.80;5.20;;;14.80;99.90;;;;;;5045985;28;20210;-66
2022/08/07 06:38:44;;;;;;;8.63;5.10;;;14.80;99.90;;;;;;5048780;28;20607;-66
2022/08/07 06:41:18;;;;;;;8.67;5.33;;;14.80;99.90;;;;;;5042837;28;20583;-65
2022/08/07 06:43:46;;;;;;;7.07;5.40;;;14.80;99.90;;;;;;5043295;28;20201;-64
2022/08/07 06:46:14;;;;;;;8.50;5.40;;;15.00;99.90;;;;;;5040058;28;20202;-66
2022/08/07 06:48:41;;;;;;;8.83;5.70;;;15.50;99.90;;;;;;5041721;28;20210;-67
2022/08/07 06:51:10;;;;;;;10.80;5.83;;;15.90;99.90;;;;;;5046063;28;20560;-65
2022/08/07 06:53:43;;;;;;;8.30;5.17;;;15.70;99.90;;;;;;5042913;28;20573;-66
2022/08/07 06:56:14;;;;;;;6.70;5.37;;;15.70;99.90;;;;;;5047857;28;20724;-66
2022/08/07 06:58:42;;;;;;;8.30;5.00;;;15.60;99.90;;;;;;5042447;28;20214;-66
2022/08/07 07:01:11;;;;;;;8.13;5.93;;;15.80;99.90;;;;;;5042978;28;20223;-65
2022/08/07 07:03:40;;;;;;;11.10;5.97;;;15.90;99.90;;;;;;5046586;28;20214;-65
2022/08/07 07:06:08;;;;;;;6.97;5.40;;;16.10;99.90;;;;;;5045886;28;20200;-65
2022/08/07 07:08:38;;;;;;;10.13;6.13;;;16.40;99.90;;;;;;5041695;28;20204;-65
2022/08/07 07:11:05;;;;;;;10.57;5.80;;;16.50;99.90;;;;;;5041601;28;20207;-66
2022/08/07 07:13:39;;;;;;;9.00;5.63;;;16.60;99.90;;;;;;5043154;28;20215;-66
2022/08/07 07:16:13;;;;;;;9.13;5.80;;;16.60;99.90;;;;;;5044779;28;20299;-66
2022/08/07 07:18:44;;;;;;;9.68;6.10;;;16.50;99.90;;;;;;5042114;28;20204;-66
2022/08/07 07:21:15;;;;;;;8.68;5.88;;;16.70;99.90;;;;;;5040153;28;20220;-65
2022/08/07 07:23:42;;;;;;;10.35;5.55;;;16.90;99.90;;;;;;5049664;28;20213;-65
2022/08/07 07:26:13;;;;;;;8.43;5.65;;;16.70;99.90;;;;;;5044991;28;20566;-65
2022/08/07 07:28:46;;;;;;;10.45;5.63;;;16.70;99.90;;;;;;5045570;28;20234;-65
2022/08/07 07:31:19;;;;;;;9.10;5.88;;;16.80;99.90;;;;;;5042993;28;20199;-66
2022/08/07 07:33:48;;;;;;;9.85;5.78;;;16.80;99.90;;;;;;5044038;28;20229;-65
2022/08/07 07:36:15;;;;;;;10.32;5.07;;;17.00;99.90;;;;;;5044189;28;20203;-67
2022/08/07 07:38:42;;;;;;;9.30;6.05;;;16.90;99.90;;;;;;5041557;28;20299;-67
2022/08/07 07:41:11;;;;;;;8.55;5.30;;;17.00;99.90;;;;;;5038859;28;20727;-66
2022/08/07 07:43:44;;;;;;;8.70;5.38;;;17.20;99.90;;;;;;5043091;28;20214;-66
2022/08/07 07:46:13;;;;;;;9.25;5.45;;;17.10;99.90;;;;;;5043827;28;20568;-66
2022/08/07 07:48:41;;;;;;;8.15;5.57;;;17.10;99.90;;;;;;5041417;28;20203;-66
2022/08/07 07:51:09;;;;;;;6.78;5.20;;;17.30;99.90;;;;;;5046184;28;20645;-66
2022/08/07 07:53:39;;;;;;;8.23;5.78;;;17.40;99.90;;;;;;5038480;28;20196;-66
2022/08/07 07:56:09;;;;;;;9.65;5.22;;;17.60;99.90;;;;;;5044918;28;20210;-66
2022/08/07 07:58:38;;;;;;;8.48;5.03;;;17.60;99.90;;;;;;5037458;28;20206;-66
2022/08/07 08:01:08;;;;;;;9.55;5.60;;;17.70;99.90;;;;;;5040230;28;20223;-66
2022/08/07 08:03:38;;;;;;;8.10;4.97;;;17.80;99.90;;;;;;5043260;28;20203;-72
2022/08/07 08:06:07;;;;;;;7.30;5.10;;;17.80;99.90;;;;;;5046301;28;20681;-71
2022/08/07 08:08:35;;;;;;;8.27;5.10;;;17.70;99.90;;;;;;5042873;28;20200;-71
2022/08/07 08:11:04;;;;;;;8.07;6.20;;;17.70;99.90;;;;;;5044824;28;20199;-70
2022/08/07 08:13:32;;;;;;;8.82;4.90;;;17.80;99.90;;;;;;5047535;28;20207;-70
2022/08/07 08:16:02;;;;;;;8.00;5.47;;;18.00;99.90;;;;;;5041191;28;20309;-70
2022/08/07 08:18:30;;;;;;;8.25;5.47;;;18.10;99.90;;;;;;5045864;28;20226;-70
2022/08/07 08:21:01;;;;;;;7.35;4.72;;;18.20;99.90;;;;;;5037519;28;20223;-71
2022/08/07 08:29:02;;;;;;;8.00;4.63;;;18.30;96.90;;;;;;5040899;28;20269;-70
2022/08/07 08:31:34;;;;;;;7.03;3.78;;;18.40;92.00;;;;;;5040952;28;20199;-71
2022/08/07 08:34:05;;;;;;;7.00;3.67;;;18.50;92.30;;;;;;5043458;28;20552;-70
2022/08/07 08:36:34;;;;;;;9.70;4.43;;;18.60;87.60;;;;;;5044933;28;20207;-70
2022/08/07 08:39:04;;;;;;;6.20;4.53;;;18.70;86.70;;;;;;5040672;28;20196;-70
2022/08/07 08:41:38;;;;;;;7.65;4.22;;;18.70;97.30;;;;;;5052381;28;20700;-70
2022/08/07 08:44:15;;;;;;;6.15;3.95;;;18.90;92.60;;;;;;5050131;28;20202;-70
2022/08/07 08:46:48;;;;;;;6.13;3.72;;;18.80;89.60;;;;;;5046040;28;20203;-70
2022/08/07 08:49:22;;;;;;;6.57;3.40;;;19.10;84.60;;;;;;5047399;28;20203;-70
2022/08/07 08:51:57;;;;;;;4.50;3.83;;;19.00;70.50;;;;;;5050465;28;20553;-70
2022/08/07 08:54:29;;;;;;;5.05;3.30;;;19.10;82.00;;;;;;5050463;28;20198;-70
2022/08/07 08:57:00;;;;;;;5.78;3.47;;;19.10;85.10;;;;;;5046670;28;20211;-71
2022/08/07 08:59:34;;;;;;;5.57;3.50;;;19.20;63.30;;;;;;5049867;28;20208;-70
2022/08/07 09:02:11;;;;;;;6.90;3.60;;;19.30;59.80;;;;;;5046288;28;20237;-70
2022/08/07 09:04:47;;;;;;;4.93;3.17;;;19.50;62.40;;;;;;5048457;28;20203;-71
2022/08/07 09:07:19;;;;;;;4.85;3.30;;;19.90;55.10;;;;;;5038391;28;20249;-71
2022/08/07 09:09:58;;;;;;;3.13;2.80;;;20.30;47.20;;;;;;5054203;28;20210;-71
2022/08/07 09:12:42;;;;;;;4.00;2.88;;;20.90;42.50;;;;;;5051285;28;20195;-71
2022/08/07 09:15:23;;;;;;;2.40;2.20;;;21.60;35.30;;;;;;5044470;28;20556;-72
2022/08/07 09:18:06;;;;;;;3.65;2.13;;;21.70;28.30;;;;;;5044551;28;20207;-71
2022/08/07 09:20:47;;;;;;;2.33;1.80;;;22.10;23.90;;;;;;5045973;28;20588;-71
2022/08/07 09:23:29;;;;;;;2.70;2.38;;;22.80;20.60;;;;;;5042683;28;20199;-72
2022/08/07 09:26:09;;;;;;;2.13;1.63;;;23.30;20.00;;;;;;5051989;28;20646;-71
2022/08/07 09:28:40;;;;;;;3.25;1.00;;;23.30;16.30;;;;;;5051726;28;20198;-71
2022/08/07 09:31:13;;;;;;;1.02;0.93;;;23.40;10.10;;;;;;5055130;28;20792;-70
2022/08/07 09:33:59;;;;;;;1.77;1.60;;;22.70;4.40;;;;;;5053043;28;20199;-70
2022/08/07 09:36:32;;;;;;;1.70;1.48;;;22.80;9.60;;;;;;5045066;28;20203;-70
2022/08/07 09:39:08;;;;;;;2.30;1.70;;;23.50;11.30;;;;;;5054960;28;20329;-70
2022/08/07 09:41:43;;;;;;;1.85;1.60;;;23.80;9.90;;;;;;5053875;28;20223;-70
2022/08/07 09:44:30;;;;;;;1.70;1.52;;;23.50;8.10;;;;;;5053698;28;20194;-70
2022/08/07 09:47:09;;;;;;;1.50;1.40;;;24.30;8.00;;;;;;5055138;28;20298;-70
2022/08/07 09:49:48;;;;;;;1.70;1.52;;;24.60;5.90;;;;;;5046071;28;20196;-69
2022/08/07 09:52:24;;;;;;;4.70;1.58;;;24.40;5.70;;;;;;5033623;28;20200;-70
2022/08/07 09:54:57;;;;;;;2.13;1.60;;;24.80;7.00;;;;;;5044181;28;20202;-70
2022/08/07 09:57:49;;;;;;;1.65;1.10;;;25.30;1.60;;;;;;5054377;28;20653;-69
2022/08/07 10:00:19;;;;;;;1.20;1.10;;;24.50;1.00;;;;;;5053657;28;20229;-70
2022/08/07 10:03:33;;;;;;;1.67;1.20;;;24.40;2.60;;;;;;5054664;28;20232;-69
2022/08/07 10:06:28;;;;;;;2.13;1.25;;;25.10;2.80;;;;;;5030197;28;20206;-69
2022/08/07 10:09:21;;;;;;;1.33;1.20;;;25.50;1.00;;;;;;5052007;28;20199;-70
2022/08/07 10:11:59;;;;;;;3.10;1.50;;;25.00;1.00;;;;;;5027559;28;20200;-70
2022/08/07 10:14:51;;;;;;;2.00;1.17;;;24.90;1.00;;;;;;5049206;28;20286;-69
2022/08/07 10:17:39;;;;;;;2.95;1.30;;;24.50;1.00;;;;;;5053344;28;20206;-69
2022/08/07 10:20:16;;;;;;;2.88;1.33;;;24.10;1.00;;;;;;5034395;28;20207;-69
2022/08/07 10:23:07;;;;;;;2.00;1.40;;;23.90;1.00;;;;;;5033892;28;20319;-70
2022/08/07 10:25:48;;;;;;;1.42;0.95;;;24.80;1.00;;;;;;5052238;28;20282;-69
2022/08/07 10:28:30;;;;;;;1.42;1.00;;;24.40;1.00;;;;;;5052418;28;20191;-69
2022/08/07 10:31:07;;;;;;;1.88;1.20;;;24.80;1.00;;;;;;5054036;28;20653;-69
2022/08/07 10:33:51;;;;;;;1.40;1.13;;;24.50;1.00;;;;;;5052290;28;20205;-69
2022/08/07 10:36:28;;;;;;;4.30;1.10;;;23.60;1.00;;;;;;5041497;28;20214;-68
2022/08/07 10:39:02;;;;;;;2.80;1.20;;;23.50;1.00;;;;;;5050417;28;20199;-68
2022/08/07 10:41:35;;;;;;;0.90;0.80;;;23.60;1.00;;;;;;5042106;28;20688;-69
2022/08/07 10:44:11;;;;;;;0.80;0.80;;;24.10;1.00;;;;;;5050477;28;20261;-70
2022/08/07 10:46:46;;;;;;;1.58;1.10;;;23.90;1.00;;;;;;5054116;28;20584;-69
2022/08/07 10:49:22;;;;;;;1.25;1.00;;;24.10;1.00;;;;;;5051972;28;20202;-69
2022/08/07 10:51:56;;;;;;;0.85;0.85;;;24.30;1.00;;;;;;5051350;28;20690;-69
2022/08/07 10:54:36;;;;;;;1.05;1.00;;;24.40;1.00;;;;;;5049714;28;20234;-70
2022/08/07 10:57:11;;;;;;;1.15;0.90;;;24.70;1.00;;;;;;5032349;28;20214;-68
2022/08/07 10:59:58;;;;;;;2.05;1.27;;;24.60;1.00;;;;;;5033765;28;20563;-69
2022/08/07 11:02:32;;;;;;;3.22;1.80;;;24.80;1.00;;;;;;5035017;28;20314;-70
2022/08/07 11:05:11;;;;;;;2.28;1.27;;;25.40;1.00;;;;;;5043144;28;20213;-70
2022/08/07 11:07:50;;;;;;;1.58;1.20;;;25.60;1.00;;;;;;5036301;28;20253;-70
2022/08/07 11:10:23;;;;;;;1.42;1.20;;;26.00;1.00;;;;;;5051910;28;20602;-70
2022/08/07 11:12:58;;;;;;;1.10;1.00;;;24.80;1.00;;;;;;5047952;28;20210;-69
2022/08/07 11:15:28;;;;;;;2.47;1.10;;;24.70;1.00;;;;;;5033329;28;20206;-70
2022/08/07 11:18:02;;;;;;;0.98;0.98;;;24.30;1.00;;;;;;5040217;28;20206;-69
2022/08/07 11:20:41;;;;;;;1.05;1.02;;;24.20;1.00;;;;;;5043100;28;20610;-69
2022/08/07 11:23:14;;;;;;;1.73;1.02;;;24.90;1.00;;;;;;5051745;28;20803;-69
2022/08/07 11:25:48;;;;;;;1.10;1.10;;;24.50;1.00;;;;;;5052667;28;20195;-66
2022/08/07 11:28:21;;;;;;;1.27;1.20;;;24.60;1.00;;;;;;5052881;28;20199;-68
2022/08/07 11:30:54;;;;;;;1.20;1.10;;;24.50;1.00;;;;;;5052529;28;20286;-69
2022/08/07 11:33:33;;;;;;;2.17;1.20;;;24.50;1.00;;;;;;5050513;28;20214;-70
2022/08/07 11:36:11;;;;;;;1.40;1.10;;;24.30;1.00;;;;;;5044348;28;20198;-69
2022/08/07 11:38:47;;;;;;;2.10;0.90;;;24.30;1.00;;;;;;5050546;28;20199;-69
2022/08/07 11:41:15;;;;;;;1.05;1.05;;;24.50;1.00;;;;;;5051233;28;20668;-70
2022/08/07 11:43:58;;;;;;;0.90;0.90;;;24.60;1.00;;;;;;5052989;28;20214;-70
2022/08/07 11:46:46;;;;;;;3.10;1.50;;;24.80;1.00;;;;;;5052318;28;20195;-70
2022/08/07 11:49:37;;;;;;;2.03;1.02;;;25.90;1.00;;;;;;5050922;28;20207;-69
2022/08/07 11:52:22;;;;;;;4.22;1.65;;;25.40;1.00;;;;;;5052430;28;20198;-69
2022/08/07 11:55:01;;;;;;;1.55;1.45;;;25.90;1.00;;;;;;5051515;28;20213;-69
2022/08/07 11:57:34;;;;;;;1.08;0.98;;;25.10;1.00;;;;;;5051672;28;20199;-70
2022/08/07 12:00:14;;;;;;;0.85;0.80;;;24.60;1.00;;;;;;5052234;28;20260;-70
2022/08/07 12:03:19;;;;;;;1.02;1.02;;;25.10;1.00;;;;;;5052705;28;20288;-69
2022/08/07 12:05:56;;;;;;;2.75;2.20;;;26.20;1.00;;;;;;5049009;28;20199;-69
2022/08/07 12:08:26;;;;;;;1.35;1.25;;;25.70;1.00;;;;;;5052011;28;20737;-70
2022/08/07 12:10:57;;;;;;;1.25;1.15;;;26.00;1.00;;;;;;5052153;28;20210;-69
2022/08/07 12:13:30;;;;;;;1.13;1.05;;;25.60;1.00;;;;;;5052429;28;20203;-69
2022/08/07 12:16:03;;;;;;;0.88;0.88;;;25.80;1.00;;;;;;5052577;28;20203;-69
2022/08/07 12:18:36;;;;;;;0.80;0.77;;;24.70;1.00;;;;;;5052866;28;20561;-69
2022/08/07 12:21:20;;;;;;;0.93;0.82;;;25.10;1.00;;;;;;5045289;28;20265;-68
2022/08/07 12:23:54;;;;;;;0.93;0.93;;;25.10;1.00;;;;;;5034842;28;20207;-67
2022/08/07 12:26:28;;;;;;;1.95;0.80;;;25.30;1.00;;;;;;5053001;28;20264;-68
2022/08/07 12:29:07;;;;;;;0.90;0.90;;;24.90;1.00;;;;;;5055047;28;20221;-69
2022/08/07 12:31:39;;;;;;;1.95;0.70;;;25.10;1.00;;;;;;5056090;28;20692;-69
2022/08/07 12:34:06;;;;;;;0.90;0.90;;;25.20;1.00;;;;;;5056163;28;20202;-68
2022/08/07 12:36:34;;;;;;;1.75;1.30;;;25.50;1.00;;;;;;5054838;28;20556;-68
2022/08/07 12:39:04;;;;;;;1.98;1.10;;;25.00;1.00;;;;;;5054869;28;20199;-71
2022/08/07 12:41:35;;;;;;;1.98;0.98;;;25.20;1.00;;;;;;5035916;28;20227;-71
2022/08/07 12:44:06;;;;;;;1.60;1.05;;;24.10;1.00;;;;;;5036267;28;20204;-70
2022/08/07 12:46:50;;;;;;;1.30;1.20;;;24.70;1.00;;;;;;5036125;28;20199;-70
2022/08/07 12:49:24;;;;;;;2.58;0.77;;;25.70;1.00;;;;;;5036418;28;20203;-69
2022/08/07 12:52:00;;;;;;;1.33;1.00;;;26.90;1.00;;;;;;5035973;28;20211;-70
2022/08/07 12:54:35;;;;;;;1.35;1.00;;;27.30;1.00;;;;;;5036151;28;20199;-70
2022/08/07 12:57:06;;;;;;;1.20;1.10;;;27.70;1.00;;;;;;5036270;28;20207;-70
2022/08/07 12:59:35;;;;;;;1.23;1.13;;;26.30;1.00;;;;;;5035849;28;20211;-70
2022/08/07 13:02:26;;;;;;;1.30;1.20;;;27.30;1.00;;;;;;5035665;28;20227;-70
2022/08/07 13:05:05;;;;;;;1.77;1.40;;;26.00;1.00;;;;;;5036133;28;20207;-70
2022/08/07 13:07:56;;;;;;;1.33;1.13;;;25.90;1.00;;;;;;5035744;28;20207;-70
2022/08/07 13:10:41;;;;;;;1.15;1.05;;;25.90;1.00;;;;;;5034626;28;20543;-70
2022/08/07 13:13:34;;;;;;;1.75;1.10;;;25.70;1.00;;;;;;5035757;28;20204;-70
2022/08/07 13:16:12;;;;;;;1.60;0.98;;;25.20;1.00;;;;;;5032207;28;20208;-70
2022/08/07 13:18:50;;;;;;;1.20;1.10;;;25.10;1.00;;;;;;5035899;28;20626;-69
2022/08/07 13:21:20;;;;;;;1.13;1.10;;;25.30;1.00;;;;;;5050791;28;20201;-70